createdAt,value
2019-06-15T00:00:12.019Z,11.27
2019-06-15T00:02:40.726Z,11.10
2019-06-15T00:05:10.452Z,11.57
2019-06-15T00:07:42.177Z,10.53
2019-06-15T00:10:10.924Z,11.00
2019-06-15T00:12:39.605Z,11.57
2019-06-15T00:15:11.510Z,11.70
2019-06-15T00:17:40.222Z,11.00
2019-06-15T00:20:10.367Z,11.53
2019-06-15T00:22:40.237Z,11.87
2019-06-15T00:25:10.388Z,10.93
2019-06-15T00:27:41.784Z,12.17
2019-06-15T00:30:11.246Z,11.40
2019-06-15T00:32:40.177Z,11.10
2019-06-15T00:35:10.690Z,12.10
2019-06-15T00:37:39.403Z,10.40
2019-06-15T00:40:09.873Z,12.03
2019-06-15T00:42:38.418Z,12.47
2019-06-15T00:45:10.717Z,10.97
2019-06-15T00:47:39.355Z,11.73
2019-06-15T00:50:08.982Z,11.73
2019-06-15T00:52:38.140Z,12.53
2019-06-15T00:55:08.632Z,10.77
2019-06-15T00:57:40.328Z,11.90
2019-06-15T01:00:11.122Z,12.40
2019-06-15T01:02:39.774Z,10.83
2019-06-15T01:05:09.244Z,12.40
2019-06-15T01:07:37.898Z,10.40
2019-06-15T01:10:08.163Z,10.77
2019-06-15T01:12:36.919Z,11.03
2019-06-15T01:15:06.803Z,12.40
2019-06-15T01:17:37.882Z,11.13
2019-06-15T01:20:07.952Z,10.40
2019-06-15T01:22:39.263Z,11.13
2019-06-15T01:25:10.436Z,10.87
2019-06-15T01:27:41.812Z,11.03
2019-06-15T01:30:12.777Z,11.40
2019-06-15T01:32:41.485Z,11.77
2019-06-15T01:35:10.678Z,11.17
2019-06-15T01:37:39.717Z,11.10
2019-06-15T01:40:10.257Z,12.50
2019-06-15T01:42:40.378Z,11.57
2019-06-15T01:45:12.311Z,10.70
2019-06-15T01:47:40.981Z,10.57
2019-06-15T01:50:09.940Z,11.30
2019-06-15T01:52:38.917Z,11.80
2019-06-15T01:55:20.093Z,10.93
2019-06-15T01:57:38.671Z,10.83
2019-06-15T02:00:08.206Z,11.07
2019-06-15T02:02:36.968Z,10.77
2019-06-15T02:05:07.606Z,10.37
2019-06-15T02:07:36.523Z,10.60
2019-06-15T02:10:08.206Z,11.30
2019-06-15T02:12:36.943Z,10.90
2019-06-15T02:15:07.480Z,11.37
2019-06-15T02:17:36.190Z,11.90
2019-06-15T02:20:07.005Z,11.57
2019-06-15T02:22:35.662Z,11.53
2019-06-15T02:25:06.148Z,12.13
2019-06-15T02:27:34.893Z,11.97
2019-06-15T02:30:04.662Z,13.30
2019-06-15T02:32:33.619Z,12.20
2019-06-15T02:35:02.395Z,13.90
2019-06-15T02:37:31.112Z,14.00
2019-06-15T02:39:59.836Z,12.83
2019-06-15T02:42:28.496Z,13.80
2019-06-15T02:44:57.266Z,14.10
2019-06-15T02:47:25.913Z,15.37
2019-06-15T02:49:54.601Z,16.60
2019-06-15T02:52:23.837Z,18.20
2019-06-15T02:54:52.575Z,19.67
2019-06-15T02:57:21.999Z,19.47
2019-06-15T02:59:50.723Z,22.03
2019-06-15T03:02:19.396Z,20.37
2019-06-15T03:04:48.058Z,20.30
2019-06-15T03:07:16.713Z,22.27
2019-06-15T03:09:45.391Z,23.63
2019-06-15T03:12:14.044Z,22.93
2019-06-15T03:14:43.893Z,21.73
2019-06-15T03:17:12.549Z,23.23
2019-06-15T03:19:41.541Z,23.57
2019-06-15T03:22:10.215Z,22.93
2019-06-15T03:24:40.382Z,23.93
2019-06-15T03:27:12.303Z,23.10
2019-06-15T03:29:40.960Z,22.50
2019-06-15T03:32:09.614Z,23.67
2019-06-15T03:34:41.066Z,23.70
2019-06-15T03:37:09.896Z,21.63
2019-06-15T03:39:39.171Z,24.17
2019-06-15T03:42:07.832Z,23.73
2019-06-15T03:44:39.236Z,24.43
2019-06-15T03:47:07.919Z,22.47
2019-06-15T03:49:39.471Z,22.30
2019-06-15T03:52:09.580Z,22.53
2019-06-15T03:54:41.421Z,20.93
2019-06-15T03:57:10.132Z,22.37
2019-06-15T03:59:40.203Z,20.37
2019-06-15T04:02:10.345Z,20.00
2019-06-15T04:04:41.855Z,19.77
2019-06-15T04:07:10.455Z,20.00
2019-06-15T04:09:42.263Z,20.87
2019-06-15T04:12:10.916Z,20.90
2019-06-15T04:14:39.572Z,21.80
2019-06-15T04:17:10.672Z,20.47
2019-06-15T04:19:39.393Z,20.30
2019-06-15T04:22:09.498Z,18.13
2019-06-15T04:24:39.614Z,20.27
2019-06-15T04:27:11.222Z,20.57
2019-06-15T04:29:39.881Z,18.20
2019-06-15T04:32:08.855Z,19.30
2019-06-15T04:34:40.768Z,18.87
2019-06-15T04:37:09.582Z,20.10
2019-06-15T04:39:38.341Z,19.40
2019-06-15T04:42:08.799Z,18.67
2019-06-15T04:44:38.248Z,19.83
2019-06-15T04:47:08.814Z,20.17
2019-06-15T04:49:40.718Z,17.77
2019-06-15T04:52:09.424Z,16.73
2019-06-15T04:54:39.592Z,17.13
2019-06-15T04:57:08.382Z,18.53
2019-06-15T04:59:38.760Z,17.33
2019-06-15T05:02:08.018Z,16.00
2019-06-15T05:04:39.314Z,15.77
2019-06-15T05:07:09.480Z,16.87
2019-06-15T05:09:40.054Z,16.60
2019-06-15T05:12:09.682Z,16.20
2019-06-15T05:14:41.067Z,17.47
2019-06-15T05:17:09.881Z,15.73
2019-06-15T05:19:38.686Z,15.60
2019-06-15T05:22:07.564Z,15.20
2019-06-15T05:24:36.498Z,16.30
2019-06-15T05:27:06.623Z,13.97
2019-06-15T05:29:35.667Z,13.37
2019-06-15T05:32:04.481Z,13.83
2019-06-15T05:34:33.172Z,14.23
2019-06-15T05:37:01.957Z,15.30
2019-06-15T05:39:30.619Z,14.07
2019-06-15T05:41:59.671Z,13.50
2019-06-15T05:44:28.272Z,13.10
2019-06-15T05:46:57.363Z,13.30
2019-06-15T05:49:26.135Z,12.80
2019-06-15T05:51:54.740Z,13.20
2019-06-15T05:54:23.472Z,12.43
2019-06-15T05:56:52.184Z,12.57
2019-06-15T05:59:20.895Z,12.53
2019-06-15T06:01:49.515Z,12.20
2019-06-15T06:04:18.329Z,12.13
2019-06-15T06:06:47.046Z,13.93
2019-06-15T06:09:15.826Z,13.20
2019-06-15T06:11:44.585Z,13.10
2019-06-15T06:14:13.613Z,12.57
2019-06-15T06:16:42.440Z,12.30
2019-06-15T06:19:11.160Z,12.17
2019-06-15T06:21:39.881Z,11.37
2019-06-15T06:24:08.617Z,12.20
2019-06-15T06:26:37.423Z,13.70
2019-06-15T06:29:06.156Z,11.33
2019-06-15T06:31:34.988Z,11.93
2019-06-15T06:34:04.124Z,13.17
2019-06-15T06:36:32.830Z,13.43
2019-06-15T06:39:01.558Z,12.50
2019-06-15T06:41:30.317Z,12.30
2019-06-15T06:43:58.987Z,12.93
2019-06-15T06:46:27.717Z,12.37
2019-06-15T06:48:56.541Z,12.10
2019-06-15T06:51:25.269Z,13.63
2019-06-15T06:53:54.526Z,11.40
2019-06-15T06:56:25.103Z,12.70
2019-06-15T06:58:55.589Z,12.53
2019-06-15T07:01:26.213Z,12.53
2019-06-15T07:03:55.241Z,12.97
2019-06-15T07:06:23.900Z,13.37
2019-06-15T07:08:52.789Z,13.93
2019-06-15T07:11:21.583Z,11.97
2019-06-15T07:13:50.312Z,12.40
2019-06-15T07:16:19.372Z,11.70
2019-06-15T07:18:48.138Z,11.73
2019-06-15T07:21:16.935Z,12.50
2019-06-15T07:23:45.673Z,13.70
2019-06-15T07:26:14.403Z,14.77
2019-06-15T07:28:43.136Z,11.97
2019-06-15T07:31:12.165Z,12.83
2019-06-15T07:33:40.878Z,12.47
2019-06-15T07:36:09.534Z,13.23
2019-06-15T07:38:38.568Z,11.70
2019-06-15T07:41:07.288Z,12.40
2019-06-15T07:43:38.893Z,12.23
2019-06-15T07:46:08.551Z,12.53
2019-06-15T07:48:37.265Z,11.60
2019-06-15T07:51:05.983Z,12.13
2019-06-15T07:53:34.805Z,12.53
2019-06-15T07:56:03.963Z,12.00
2019-06-15T07:58:32.689Z,12.60
2019-06-15T08:01:01.406Z,12.33
2019-06-15T08:03:30.011Z,12.37
2019-06-15T08:05:58.724Z,12.20
2019-06-15T08:08:27.442Z,13.23
2019-06-15T08:10:56.559Z,13.83
2019-06-15T08:13:25.234Z,12.17
2019-06-15T08:15:53.990Z,13.20
2019-06-15T08:18:22.699Z,11.33
2019-06-15T08:20:51.513Z,12.23
2019-06-15T08:23:20.224Z,12.93
2019-06-15T08:25:48.952Z,13.70
2019-06-15T08:28:17.733Z,13.50
2019-06-15T08:30:47.017Z,14.23
2019-06-15T08:33:15.758Z,14.57
2019-06-15T08:35:44.556Z,14.10
2019-06-15T08:38:13.314Z,16.77
2019-06-15T08:40:42.320Z,14.30
2019-06-15T08:43:11.141Z,14.60
2019-06-15T08:45:39.769Z,14.90
2019-06-15T08:48:11.039Z,14.27
2019-06-15T08:50:39.869Z,13.50
2019-06-15T08:53:08.572Z,13.83
2019-06-15T08:55:37.399Z,15.40
2019-06-15T08:58:06.128Z,14.33
2019-06-15T09:00:34.960Z,14.20
2019-06-15T09:03:03.683Z,13.90
2019-06-15T09:05:32.395Z,15.37
2019-06-15T09:08:01.318Z,14.70
2019-06-15T09:10:30.022Z,14.90
2019-06-15T09:12:58.734Z,15.13
2019-06-15T09:15:53.294Z,13.60
2019-06-15T09:18:23.050Z,14.60
2019-06-15T09:20:51.838Z,14.20
2019-06-15T09:23:20.969Z,15.07
2019-06-15T09:25:49.820Z,15.00
2019-06-15T09:28:18.526Z,15.27
2019-06-15T09:30:47.289Z,15.77
2019-06-15T09:33:15.982Z,13.80
2019-06-15T09:35:44.787Z,14.43
2019-06-15T09:38:13.602Z,15.13
2019-06-15T09:40:42.528Z,15.87
2019-06-15T09:43:11.230Z,15.30
2019-06-15T09:45:40.350Z,15.40
2019-06-15T09:48:10.572Z,15.03
2019-06-15T09:50:42.104Z,15.70
2019-06-15T09:53:11.218Z,15.37
2019-06-15T09:55:40.028Z,14.97
2019-06-15T09:58:08.749Z,16.63
2019-06-15T10:00:40.768Z,16.60
2019-06-15T10:03:10.157Z,14.80
2019-06-15T10:05:40.669Z,15.13
2019-06-15T10:08:09.501Z,14.77
2019-06-15T10:10:39.866Z,16.20
2019-06-15T10:13:08.549Z,16.40
2019-06-15T10:15:37.398Z,15.40
2019-06-15T10:18:06.107Z,16.60
2019-06-15T10:20:34.814Z,15.23
2019-06-15T10:23:03.631Z,15.50
2019-06-15T10:25:32.465Z,14.20
2019-06-15T10:28:01.473Z,15.73
2019-06-15T10:30:30.197Z,16.37
2019-06-15T10:32:59.030Z,14.77
2019-06-15T10:35:27.689Z,15.43
2019-06-15T10:37:56.367Z,16.07
2019-06-15T10:40:25.386Z,15.40
2019-06-15T10:42:54.429Z,15.30
2019-06-15T10:45:23.421Z,15.70
2019-06-15T10:47:52.237Z,16.43
2019-06-15T10:50:21.255Z,14.63
2019-06-15T10:52:50.068Z,13.80
2019-06-15T10:55:18.798Z,14.60
2019-06-15T10:57:47.641Z,14.43
2019-06-15T11:00:17.081Z,13.53
2019-06-15T11:02:45.836Z,13.90
2019-06-15T11:05:17.476Z,13.70
2019-06-15T11:07:46.529Z,14.30
2019-06-15T11:10:17.331Z,13.57
2019-06-15T11:12:47.124Z,14.03
2019-06-15T11:15:16.995Z,14.17
2019-06-15T11:17:46.471Z,14.97
2019-06-15T11:20:16.140Z,13.77
2019-06-15T11:22:45.537Z,15.33
2019-06-15T11:25:15.036Z,14.90
2019-06-15T11:27:44.564Z,13.90
2019-06-15T11:30:14.841Z,14.33
2019-06-15T11:32:44.619Z,13.87
2019-06-15T11:35:14.066Z,23.07
2019-06-15T11:37:43.067Z,14.37
2019-06-15T11:40:12.514Z,16.53
2019-06-15T11:42:42.496Z,19.60
2019-06-15T11:45:11.998Z,16.37
2019-06-15T11:47:41.220Z,14.53
2019-06-15T11:50:12.054Z,13.40
2019-06-15T11:52:41.499Z,14.20
2019-06-15T11:55:11.051Z,14.20
2019-06-15T11:57:40.103Z,13.77
2019-06-15T12:00:10.024Z,12.40
2019-06-15T12:02:40.787Z,13.30
2019-06-15T12:05:10.057Z,13.77
2019-06-15T12:07:40.773Z,13.20
2019-06-15T12:10:10.214Z,13.47
2019-06-15T12:12:40.704Z,13.47
2019-06-15T12:15:10.028Z,13.43
2019-06-15T12:17:40.605Z,13.77
2019-06-15T12:20:10.243Z,12.90
2019-06-15T12:22:42.400Z,12.00
2019-06-15T12:25:11.628Z,11.50
2019-06-15T12:27:41.121Z,10.60
2019-06-15T12:30:12.820Z,11.13
2019-06-15T12:32:42.201Z,11.23
2019-06-15T12:35:11.102Z,10.60
2019-06-15T12:37:39.814Z,10.67
2019-06-15T12:40:09.683Z,8.80
2019-06-15T12:42:42.560Z,9.00
2019-06-15T12:45:13.450Z,9.13
2019-06-15T12:47:42.774Z,9.93
2019-06-15T12:50:11.707Z,9.33
2019-06-15T12:52:42.775Z,10.60
2019-06-15T12:55:11.485Z,11.07
2019-06-15T12:57:40.325Z,9.17
2019-06-15T13:00:10.531Z,9.40
2019-06-15T13:02:42.363Z,9.63
2019-06-15T13:05:11.349Z,9.70
2019-06-15T13:07:40.117Z,7.93
2019-06-15T13:10:10.404Z,8.57
2019-06-15T13:12:42.208Z,7.83
2019-06-15T13:15:11.226Z,8.73
2019-06-15T13:17:39.937Z,9.13
2019-06-15T13:20:08.935Z,8.50
2019-06-15T13:22:40.852Z,8.23
2019-06-15T13:25:09.873Z,8.00
2019-06-15T13:27:38.584Z,8.13
2019-06-15T13:30:10.573Z,8.50
2019-06-15T13:32:42.150Z,7.93
2019-06-15T13:35:10.974Z,8.53
2019-06-15T13:37:42.325Z,7.93
2019-06-15T13:40:10.154Z,8.93
2019-06-15T13:42:40.498Z,8.50
2019-06-15T13:45:13.193Z,8.13
2019-06-15T13:47:41.961Z,7.93
2019-06-15T13:50:11.083Z,8.17
2019-06-15T13:52:40.008Z,7.70
2019-06-15T13:55:09.347Z,8.27
2019-06-15T13:57:39.507Z,8.90
2019-06-15T14:00:09.110Z,6.63
2019-06-15T14:02:37.876Z,5.57
2019-06-15T14:05:07.390Z,6.70
2019-06-15T14:07:38.975Z,5.63
2019-06-15T14:10:07.906Z,6.13
2019-06-15T14:12:39.934Z,6.23
2019-06-15T14:15:08.833Z,5.63
2019-06-15T14:17:40.614Z,6.20
2019-06-15T14:20:09.688Z,6.13
2019-06-15T14:22:41.533Z,6.27
2019-06-15T14:25:10.758Z,6.10
2019-06-15T14:27:39.474Z,6.23
2019-06-15T14:30:09.702Z,5.40
2019-06-15T14:32:41.436Z,5.33
2019-06-15T14:35:11.595Z,4.37
2019-06-15T14:37:40.305Z,6.07
2019-06-15T14:40:12.218Z,4.60
2019-06-15T14:42:40.933Z,4.20
2019-06-15T14:45:11.303Z,4.00
2019-06-15T14:47:40.025Z,3.70
2019-06-15T14:50:09.147Z,4.17
2019-06-15T14:52:39.312Z,3.53
2019-06-15T14:55:08.542Z,4.30
2019-06-15T14:57:37.468Z,3.87
2019-06-15T15:00:09.159Z,4.20
2019-06-15T15:02:39.542Z,3.73
2019-06-15T15:05:14.589Z,4.20
2019-06-15T15:07:41.694Z,3.40
2019-06-15T15:10:11.048Z,3.47
2019-06-15T15:12:41.821Z,3.53
2019-06-15T15:15:10.609Z,4.10
2019-06-15T15:17:39.314Z,4.40
2019-06-15T15:20:08.656Z,3.57
2019-06-15T15:22:37.569Z,4.00
2019-06-15T15:25:08.740Z,3.60
2019-06-15T15:27:40.435Z,3.37
2019-06-15T15:30:13.464Z,3.97
2019-06-15T15:32:42.219Z,3.53
2019-06-15T15:35:11.034Z,3.80
2019-06-15T15:37:39.742Z,4.17
2019-06-15T15:40:11.537Z,3.90
2019-06-15T15:42:40.226Z,4.57
2019-06-15T15:45:10.763Z,4.17
2019-06-15T15:47:39.459Z,4.07
2019-06-15T15:50:11.561Z,4.10
2019-06-15T15:52:40.277Z,4.30
2019-06-15T15:55:10.443Z,4.53
2019-06-15T15:57:42.019Z,4.00
2019-06-15T16:00:12.284Z,4.70
2019-06-15T16:02:52.061Z,5.40
2019-06-15T16:05:11.446Z,5.20
2019-06-15T16:07:40.071Z,6.03
2019-06-15T16:10:08.998Z,6.90
2019-06-15T16:12:37.719Z,7.40
2019-06-15T16:15:12.729Z,7.63
2019-06-15T16:17:41.332Z,7.00
2019-06-15T16:20:20.276Z,7.23
2019-06-15T16:22:49.002Z,7.50
2019-06-15T16:25:17.940Z,6.87
2019-06-15T16:27:46.662Z,6.60
2019-06-15T16:30:39.569Z,6.73
2019-06-15T16:33:00.506Z,6.13
2019-06-15T16:35:21.838Z,6.70
2019-06-15T16:37:50.559Z,6.37
2019-06-15T16:40:22.149Z,6.83
2019-06-15T16:42:50.855Z,7.03
2019-06-15T16:45:19.583Z,7.30
2019-06-15T16:47:48.407Z,6.80
2019-06-15T16:50:17.688Z,5.87
2019-06-15T16:52:46.986Z,7.00
2019-06-15T16:55:16.831Z,6.90
2019-06-15T16:57:46.633Z,5.83
2019-06-15T17:00:21.738Z,6.60
2019-06-15T17:02:50.855Z,6.90
2019-06-15T17:05:19.778Z,6.00
2019-06-15T17:07:48.669Z,6.77
2019-06-15T17:10:20.390Z,6.20
2019-06-15T17:12:49.213Z,6.13
2019-06-15T17:15:17.937Z,6.03
2019-06-15T17:17:46.751Z,6.57
2019-06-15T17:20:18.331Z,6.70
2019-06-15T17:22:47.350Z,6.57
2019-06-15T17:25:16.677Z,6.70
2019-06-15T17:27:46.938Z,6.00
2019-06-15T17:30:17.222Z,6.23
2019-06-15T17:32:46.009Z,7.00
2019-06-15T17:35:16.885Z,6.03
2019-06-15T17:37:47.029Z,6.17
2019-06-15T17:40:16.336Z,6.33
2019-06-15T17:42:45.080Z,6.43
2019-06-15T17:45:16.156Z,6.30
2019-06-15T17:47:46.674Z,6.10
2019-06-15T17:50:17.114Z,5.97
2019-06-15T17:52:46.822Z,6.30
2019-06-15T17:55:17.879Z,6.20
2019-06-15T17:57:46.601Z,6.00
2019-06-15T18:00:17.175Z,5.87
2019-06-15T18:02:46.215Z,4.50
2019-06-15T18:05:14.912Z,4.90
2019-06-15T18:07:43.728Z,4.90
2019-06-15T18:10:12.675Z,5.07
2019-06-15T18:12:41.532Z,5.70
2019-06-15T18:15:10.578Z,5.10
2019-06-15T18:17:42.474Z,5.00
2019-06-15T18:20:11.908Z,5.13
2019-06-15T18:22:40.721Z,5.93
2019-06-15T18:25:09.534Z,6.37
2019-06-15T18:27:39.563Z,5.43
2019-06-15T18:30:09.663Z,4.70
2019-06-15T18:32:38.473Z,4.70
2019-06-15T18:35:10.684Z,4.30
2019-06-15T18:37:39.418Z,4.43
2019-06-15T18:40:08.933Z,4.20
2019-06-15T18:42:37.754Z,4.27
2019-06-15T18:45:07.667Z,4.17
2019-06-15T18:47:39.556Z,4.17
2019-06-15T18:50:09.467Z,4.50
2019-06-15T18:52:41.574Z,4.07
2019-06-15T18:55:11.931Z,4.30
2019-06-15T18:57:40.746Z,3.87
2019-06-15T19:00:09.797Z,3.87
2019-06-15T19:02:38.475Z,3.80
2019-06-15T19:05:08.835Z,4.30
2019-06-15T19:07:40.829Z,4.20
2019-06-15T19:10:09.683Z,4.03
2019-06-15T19:12:41.436Z,4.30
2019-06-15T19:15:10.355Z,3.97
2019-06-15T19:17:41.842Z,4.50
2019-06-15T19:20:10.967Z,4.20
2019-06-15T19:22:39.694Z,3.93
2019-06-15T19:25:08.593Z,4.23
2019-06-15T19:27:37.320Z,3.57
2019-06-15T19:30:10.465Z,3.23
2019-06-15T19:32:42.341Z,3.60
2019-06-15T19:35:11.254Z,4.03
2019-06-15T19:37:39.970Z,3.40
2019-06-15T19:40:10.135Z,3.83
2019-06-15T19:42:40.370Z,4.20
2019-06-15T19:45:12.552Z,3.93
2019-06-15T19:47:41.287Z,4.40
2019-06-15T19:50:10.510Z,4.57
2019-06-15T19:52:42.190Z,4.97
2019-06-15T19:55:11.312Z,4.00
2019-06-15T19:57:40.055Z,3.77
2019-06-15T20:00:09.878Z,3.70
2019-06-15T20:02:39.143Z,4.20
2019-06-15T20:05:08.692Z,3.83
2019-06-15T20:07:37.586Z,4.60
2019-06-15T20:10:10.667Z,3.50
2019-06-15T20:12:39.637Z,4.40
2019-06-15T20:15:08.973Z,4.53
2019-06-15T20:17:39.799Z,4.33
2019-06-15T20:20:09.427Z,5.70
2019-06-15T20:22:39.569Z,6.17
2019-06-15T20:25:08.495Z,5.23
2019-06-15T20:27:37.725Z,6.30
2019-06-15T20:30:07.873Z,7.20
2019-06-15T20:32:39.447Z,6.47
2019-06-15T20:35:16.567Z,6.57
2019-06-15T20:37:40.078Z,5.03
2019-06-15T20:40:09.519Z,5.77
2019-06-15T20:42:41.416Z,5.43
2019-06-15T20:45:11.038Z,5.57
2019-06-15T20:47:39.757Z,5.30
2019-06-15T20:50:22.004Z,4.43
2019-06-15T20:52:42.206Z,4.90
2019-06-15T20:55:11.006Z,4.73
2019-06-15T20:57:39.715Z,5.27
2019-06-15T21:00:09.573Z,4.30
2019-06-15T21:02:38.837Z,4.73
2019-06-15T21:05:09.511Z,4.77
2019-06-15T21:07:39.595Z,4.97
2019-06-15T21:10:09.151Z,4.67
2019-06-15T21:12:37.999Z,4.10
2019-06-15T21:15:10.663Z,5.53
2019-06-15T21:17:39.686Z,5.27
2019-06-15T21:20:11.379Z,5.07
2019-06-15T21:22:40.043Z,5.10
2019-06-15T21:25:10.418Z,5.00
2019-06-15T21:27:42.177Z,5.10
2019-06-15T21:30:12.405Z,5.77
2019-06-15T21:32:41.197Z,6.40
2019-06-15T21:35:10.559Z,5.43
2019-06-15T21:37:42.243Z,5.57
2019-06-15T21:40:11.293Z,5.30
2019-06-15T21:42:40.080Z,5.13
2019-06-15T21:45:09.535Z,4.90
2019-06-15T21:47:39.739Z,5.60
2019-06-15T21:50:09.330Z,4.70
2019-06-15T21:52:38.110Z,5.07
2019-06-15T21:55:10.219Z,4.80
2019-06-15T21:57:40.487Z,4.77
2019-06-15T22:00:17.383Z,5.00
2019-06-15T22:02:47.108Z,4.10
2019-06-15T22:05:16.555Z,4.60
2019-06-15T22:07:47.683Z,4.60
2019-06-15T22:10:17.429Z,5.50
2019-06-15T22:12:46.157Z,4.30
2019-06-15T22:15:16.093Z,4.10
2019-06-15T22:17:45.237Z,4.87
2019-06-15T22:20:16.776Z,4.33
2019-06-15T22:22:46.891Z,3.83
2019-06-15T22:25:15.952Z,4.63
2019-06-15T22:27:46.825Z,4.63
2019-06-15T22:30:16.983Z,4.10
2019-06-15T22:32:47.210Z,4.00
2019-06-15T22:35:16.500Z,3.63
2019-06-15T22:37:46.742Z,4.00
2019-06-15T22:40:16.518Z,3.17
2019-06-15T22:42:47.048Z,3.43
2019-06-15T22:45:17.174Z,3.50
2019-06-15T22:47:46.749Z,2.90
2019-06-15T22:50:16.202Z,3.13
2019-06-15T22:52:47.147Z,3.30
2019-06-15T22:55:16.543Z,2.97
2019-06-15T22:57:46.077Z,3.03
2019-06-15T23:00:17.143Z,2.70
2019-06-15T23:02:46.141Z,3.23
2019-06-15T23:05:17.089Z,3.40
2019-06-15T23:07:47.267Z,3.50
2019-06-15T23:10:16.821Z,3.13
2019-06-15T23:12:46.443Z,3.40
2019-06-15T23:15:17.411Z,3.03
2019-06-15T23:17:46.698Z,3.00
2019-06-15T23:20:17.279Z,2.37
2019-06-15T23:22:46.771Z,1.70
2019-06-15T23:25:16.843Z,2.10
2019-06-15T23:27:46.915Z,1.57
2019-06-15T23:30:16.240Z,2.10
2019-06-15T23:32:46.819Z,1.40
2019-06-15T23:35:19.438Z,1.40
2019-06-15T23:37:48.220Z,1.60
2019-06-15T23:40:21.901Z,1.57
2019-06-15T23:42:51.298Z,1.30
2019-06-15T23:45:21.233Z,1.03
2019-06-15T23:47:50.252Z,1.10
2019-06-15T23:50:20.001Z,1.00
2019-06-15T23:52:49.134Z,1.00
2019-06-15T23:55:19.685Z,1.27
2019-06-15T23:57:48.414Z,1.10
